sensor_id;sensor_type;location;lat;lon;timestamp;temperature;humidity
8888;DHT22;4480;52.370;9.748;2024-02-04T00:02:11;8.90;99.90
8888;DHT22;4480;52.370;9.748;2024-02-04T00:04:39;8.80;99.90
8888;DHT22;4480;52.370;9.748;2024-02-04T00:07:06;8.80;99.90
8888;DHT22;4480;52.370;9.748;2024-02-04T00:09:33;8.70;99.90
8888;DHT22;4480;52.370;9.748;2024-02-04T00:12:01;8.70;99.90
8888;DHT22;4480;52.370;9.748;2024-02-04T00:14:29;8.70;99.90
8888;DHT22;4480;52.370;9.748;2024-02-04T00:16:56;8.70;99.90
8888;DHT22;4480;52.370;9.748;2024-02-04T00:19:22;8.70;99.90
8888;DHT22;4480;52.370;9.748;2024-02-04T00:21:49;8.70;99.90
8888;DHT22;4480;52.370;9.748;2024-02-04T00:24:16;8.60;99.90
8888;DHT22;4480;52.370;9.748;2024-02-04T00:26:44;8.60;99.90
8888;DHT22;4480;52.370;9.748;2024-02-04T00:29:12;8.60;99.90
8888;DHT22;4480;52.370;9.748;2024-02-04T00:31:39;8.60;99.90
8888;DHT22;4480;52.370;9.748;2024-02-04T00:34:05;8.60;99.90
8888;DHT22;4480;52.370;9.748;2024-02-04T00:36:31;8.50;99.90
8888;DHT22;4480;52.370;9.748;2024-02-04T00:38:58;8.50;99.90
8888;DHT22;4480;52.370;9.748;2024-02-04T00:41:25;8.50;99.90
8888;DHT22;4480;52.370;9.748;2024-02-04T00:43:51;8.40;99.90
8888;DHT22;4480;52.370;9.748;2024-02-04T00:46:20;8.40;99.90
8888;DHT22;4480;52.370;9.748;2024-02-04T00:48:47;8.30;99.90
8888;DHT22;4480;52.370;9.748;2024-02-04T00:51:13;8.30;99.90
8888;DHT22;4480;52.370;9.748;2024-02-04T00:53:42;8.30;99.90
8888;DHT22;4480;52.370;9.748;2024-02-04T00:56:09;8.20;99.90
8888;DHT22;4480;52.370;9.748;2024-02-04T00:58:36;8.20;99.90
8888;DHT22;4480;52.370;9.748;2024-02-04T01:01:03;8.10;99.90
8888;DHT22;4480;52.370;9.748;2024-02-04T01:03:32;8.10;99.90
8888;DHT22;4480;52.370;9.748;2024-02-04T01:05:59;8.10;99.90
8888;DHT22;4480;52.370;9.748;2024-02-04T01:08:25;8.10;99.90
8888;DHT22;4480;52.370;9.748;2024-02-04T01:10:52;8.00;99.90
8888;DHT22;4480;52.370;9.748;2024-02-04T01:13:19;8.10;99.90
8888;DHT22;4480;52.370;9.748;2024-02-04T01:15:46;8.10;99.90
8888;DHT22;4480;52.370;9.748;2024-02-04T01:18:13;8.00;99.90
8888;DHT22;4480;52.370;9.748;2024-02-04T01:20:41;8.00;99.90
8888;DHT22;4480;52.370;9.748;2024-02-04T01:23:08;8.00;99.90
8888;DHT22;4480;52.370;9.748;2024-02-04T01:25:34;8.10;99.90
8888;DHT22;4480;52.370;9.748;2024-02-04T01:28:01;8.10;99.90
8888;DHT22;4480;52.370;9.748;2024-02-04T01:30:27;8.00;99.90
8888;DHT22;4480;52.370;9.748;2024-02-04T01:32:56;8.00;99.90
8888;DHT22;4480;52.370;9.748;2024-02-04T01:35:22;8.00;99.90
8888;DHT22;4480;52.370;9.748;2024-02-04T01:37:50;8.00;99.90
8888;DHT22;4480;52.370;9.748;2024-02-04T01:40:17;8.00;99.90
8888;DHT22;4480;52.370;9.748;2024-02-04T01:42:44;8.10;99.90
8888;DHT22;4480;52.370;9.748;2024-02-04T01:45:11;8.10;99.90
8888;DHT22;4480;52.370;9.748;2024-02-04T01:47:38;8.10;99.90
8888;DHT22;4480;52.370;9.748;2024-02-04T01:50:05;8.20;99.90
8888;DHT22;4480;52.370;9.748;2024-02-04T01:52:34;8.20;99.90
8888;DHT22;4480;52.370;9.748;2024-02-04T01:55:05;8.20;99.90
8888;DHT22;4480;52.370;9.748;2024-02-04T01:57:32;8.20;99.90
8888;DHT22;4480;52.370;9.748;2024-02-04T02:00:00;8.20;99.90
8888;DHT22;4480;52.370;9.748;2024-02-04T02:02:28;8.30;99.90
8888;DHT22;4480;52.370;9.748;2024-02-04T02:04:54;8.30;99.90
8888;DHT22;4480;52.370;9.748;2024-02-04T02:07:21;8.30;99.90
8888;DHT22;4480;52.370;9.748;2024-02-04T02:09:49;8.40;99.90
8888;DHT22;4480;52.370;9.748;2024-02-04T02:12:21;8.40;99.90
8888;DHT22;4480;52.370;9.748;2024-02-04T02:14:56;8.50;99.90
8888;DHT22;4480;52.370;9.748;2024-02-04T02:17:31;8.60;99.90
8888;DHT22;4480;52.370;9.748;2024-02-04T02:20:01;8.60;99.90
8888;DHT22;4480;52.370;9.748;2024-02-04T02:22:39;8.60;99.90
8888;DHT22;4480;52.370;9.748;2024-02-04T02:25:12;8.60;99.90
8888;DHT22;4480;52.370;9.748;2024-02-04T02:27:46;8.50;99.90
8888;DHT22;4480;52.370;9.748;2024-02-04T02:30:14;8.50;99.90
8888;DHT22;4480;52.370;9.748;2024-02-04T02:32:41;8.60;99.90
8888;DHT22;4480;52.370;9.748;2024-02-04T02:35:08;8.60;99.90
8888;DHT22;4480;52.370;9.748;2024-02-04T02:37:40;8.60;99.90
8888;DHT22;4480;52.370;9.748;2024-02-04T02:40:18;8.70;99.90
8888;DHT22;4480;52.370;9.748;2024-02-04T02:42:48;8.70;99.90
8888;DHT22;4480;52.370;9.748;2024-02-04T02:45:16;8.70;99.90
8888;DHT22;4480;52.370;9.748;2024-02-04T02:47:44;8.80;99.90
8888;DHT22;4480;52.370;9.748;2024-02-04T02:50:13;8.70;99.90
8888;DHT22;4480;52.370;9.748;2024-02-04T02:52:40;8.70;99.90
8888;DHT22;4480;52.370;9.748;2024-02-04T02:55:07;8.70;99.90
8888;DHT22;4480;52.370;9.748;2024-02-04T02:57:35;8.60;99.90
8888;DHT22;4480;52.370;9.748;2024-02-04T03:00:02;8.60;99.90
8888;DHT22;4480;52.370;9.748;2024-02-04T03:02:31;8.60;99.90
8888;DHT22;4480;52.370;9.748;2024-02-04T03:04:58;8.60;99.90
8888;DHT22;4480;52.370;9.748;2024-02-04T03:07:24;8.60;99.90
8888;DHT22;4480;52.370;9.748;2024-02-04T03:09:52;8.60;99.90
8888;DHT22;4480;52.370;9.748;2024-02-04T03:12:19;8.70;99.90
8888;DHT22;4480;52.370;9.748;2024-02-04T03:14:47;8.60;99.90
8888;DHT22;4480;52.370;9.748;2024-02-04T03:17:14;8.60;99.90
8888;DHT22;4480;52.370;9.748;2024-02-04T03:19:40;8.60;99.90
8888;DHT22;4480;52.370;9.748;2024-02-04T03:22:08;8.50;99.90
8888;DHT22;4480;52.370;9.748;2024-02-04T03:24:35;8.50;99.90
8888;DHT22;4480;52.370;9.748;2024-02-04T03:27:02;8.50;99.90
8888;DHT22;4480;52.370;9.748;2024-02-04T03:29:29;8.50;99.90
8888;DHT22;4480;52.370;9.748;2024-02-04T03:31:57;8.50;99.90
8888;DHT22;4480;52.370;9.748;2024-02-04T03:34:24;8.50;99.90
8888;DHT22;4480;52.370;9.748;2024-02-04T03:36:51;8.50;99.90
8888;DHT22;4480;52.370;9.748;2024-02-04T03:39:17;8.50;99.90
8888;DHT22;4480;52.370;9.748;2024-02-04T03:41:44;8.50;99.90
8888;DHT22;4480;52.370;9.748;2024-02-04T03:44:11;8.50;99.90
8888;DHT22;4480;52.370;9.748;2024-02-04T03:46:38;8.50;99.90
8888;DHT22;4480;52.370;9.748;2024-02-04T03:49:07;8.50;99.90
8888;DHT22;4480;52.370;9.748;2024-02-04T03:51:34;8.50;99.90
8888;DHT22;4480;52.370;9.748;2024-02-04T03:54:00;8.50;99.90
8888;DHT22;4480;52.370;9.748;2024-02-04T03:56:27;8.50;99.90
8888;DHT22;4480;52.370;9.748;2024-02-04T03:58:54;8.50;99.90
8888;DHT22;4480;52.370;9.748;2024-02-04T04:01:20;8.50;99.90
8888;DHT22;4480;52.370;9.748;2024-02-04T04:03:47;8.50;99.90
8888;DHT22;4480;52.370;9.748;2024-02-04T04:06:15;8.50;99.90
8888;DHT22;4480;52.370;9.748;2024-02-04T04:08:42;8.50;99.90
8888;DHT22;4480;52.370;9.748;2024-02-04T04:13:06;8.40;99.90
8888;DHT22;4480;52.370;9.748;2024-02-04T04:15:32;8.40;99.90
8888;DHT22;4480;52.370;9.748;2024-02-04T04:17:59;8.40;99.90
8888;DHT22;4480;52.370;9.748;2024-02-04T04:20:26;8.30;99.90
8888;DHT22;4480;52.370;9.748;2024-02-04T04:22:53;8.30;99.90
8888;DHT22;4480;52.370;9.748;2024-02-04T04:25:19;8.20;99.90
8888;DHT22;4480;52.370;9.748;2024-02-04T04:27:46;8.30;99.90
8888;DHT22;4480;52.370;9.748;2024-02-04T04:30:14;8.20;99.90
8888;DHT22;4480;52.370;9.748;2024-02-04T04:32:41;8.30;99.90
8888;DHT22;4480;52.370;9.748;2024-02-04T04:35:08;8.20;99.90
8888;DHT22;4480;52.370;9.748;2024-02-04T04:37:35;8.20;99.90
8888;DHT22;4480;52.370;9.748;2024-02-04T04:40:01;8.20;99.90
8888;DHT22;4480;52.370;9.748;2024-02-04T04:42:28;8.20;99.90
8888;DHT22;4480;52.370;9.748;2024-02-04T04:44:55;8.20;99.90
8888;DHT22;4480;52.370;9.748;2024-02-04T04:47:23;8.10;99.90
8888;DHT22;4480;52.370;9.748;2024-02-04T04:49:49;8.10;99.90
8888;DHT22;4480;52.370;9.748;2024-02-04T04:52:16;8.10;99.90
8888;DHT22;4480;52.370;9.748;2024-02-04T04:54:43;8.10;99.90
8888;DHT22;4480;52.370;9.748;2024-02-04T04:57:10;8.10;99.90
8888;DHT22;4480;52.370;9.748;2024-02-04T04:59:37;8.20;99.90
8888;DHT22;4480;52.370;9.748;2024-02-04T05:02:04;8.20;99.90
8888;DHT22;4480;52.370;9.748;2024-02-04T05:04:32;8.20;99.90
8888;DHT22;4480;52.370;9.748;2024-02-04T05:06:58;8.20;99.90
8888;DHT22;4480;52.370;9.748;2024-02-04T05:09:25;8.10;99.90
8888;DHT22;4480;52.370;9.748;2024-02-04T05:11:52;8.10;99.90
8888;DHT22;4480;52.370;9.748;2024-02-04T05:14:19;8.10;99.90
8888;DHT22;4480;52.370;9.748;2024-02-04T05:16:47;8.10;99.90
8888;DHT22;4480;52.370;9.748;2024-02-04T05:19:13;8.10;99.90
8888;DHT22;4480;52.370;9.748;2024-02-04T05:21:41;8.10;99.90
8888;DHT22;4480;52.370;9.748;2024-02-04T05:24:08;8.10;99.90
8888;DHT22;4480;52.370;9.748;2024-02-04T05:26:35;8.10;99.90
8888;DHT22;4480;52.370;9.748;2024-02-04T05:29:02;8.20;99.90
8888;DHT22;4480;52.370;9.748;2024-02-04T05:31:28;8.20;99.90
8888;DHT22;4480;52.370;9.748;2024-02-04T05:33:56;8.30;99.90
8888;DHT22;4480;52.370;9.748;2024-02-04T05:36:23;8.30;99.90
8888;DHT22;4480;52.370;9.748;2024-02-04T05:38:51;8.30;99.90
8888;DHT22;4480;52.370;9.748;2024-02-04T05:41:17;8.20;99.90
8888;DHT22;4480;52.370;9.748;2024-02-04T05:43:44;8.30;99.90
8888;DHT22;4480;52.370;9.748;2024-02-04T05:46:13;8.20;99.90
8888;DHT22;4480;52.370;9.748;2024-02-04T05:48:40;8.20;99.90
8888;DHT22;4480;52.370;9.748;2024-02-04T05:51:09;8.20;99.90
8888;DHT22;4480;52.370;9.748;2024-02-04T05:53:36;8.20;99.90
8888;DHT22;4480;52.370;9.748;2024-02-04T05:56:05;8.30;99.90
8888;DHT22;4480;52.370;9.748;2024-02-04T05:58:31;8.30;99.90
8888;DHT22;4480;52.370;9.748;2024-02-04T06:00:58;8.30;99.90
8888;DHT22;4480;52.370;9.748;2024-02-04T06:03:25;8.40;99.90
8888;DHT22;4480;52.370;9.748;2024-02-04T06:05:51;8.40;99.90
8888;DHT22;4480;52.370;9.748;2024-02-04T06:08:18;8.40;99.90
8888;DHT22;4480;52.370;9.748;2024-02-04T06:10:45;8.40;99.90
8888;DHT22;4480;52.370;9.748;2024-02-04T06:13:13;8.40;99.90
8888;DHT22;4480;52.370;9.748;2024-02-04T06:15:40;8.40;99.90
8888;DHT22;4480;52.370;9.748;2024-02-04T06:18:07;8.40;99.90
8888;DHT22;4480;52.370;9.748;2024-02-04T06:20:34;8.40;99.90
8888;DHT22;4480;52.370;9.748;2024-02-04T06:23:00;8.40;99.90
8888;DHT22;4480;52.370;9.748;2024-02-04T06:25:26;8.40;99.90
8888;DHT22;4480;52.370;9.748;2024-02-04T06:27:53;8.40;99.90
8888;DHT22;4480;52.370;9.748;2024-02-04T06:30:21;8.40;99.90
8888;DHT22;4480;52.370;9.748;2024-02-04T06:32:48;8.40;99.90
8888;DHT22;4480;52.370;9.748;2024-02-04T06:35:15;8.40;99.90
8888;DHT22;4480;52.370;9.748;2024-02-04T06:37:42;8.40;99.90
8888;DHT22;4480;52.370;9.748;2024-02-04T06:40:10;8.40;99.90
8888;DHT22;4480;52.370;9.748;2024-02-04T06:42:37;8.40;99.90
8888;DHT22;4480;52.370;9.748;2024-02-04T06:45:04;8.40;99.90
8888;DHT22;4480;52.370;9.748;2024-02-04T06:47:32;8.40;99.90
8888;DHT22;4480;52.370;9.748;2024-02-04T06:49:59;8.30;99.90
8888;DHT22;4480;52.370;9.748;2024-02-04T06:52:28;8.30;99.90
8888;DHT22;4480;52.370;9.748;2024-02-04T06:54:55;8.30;99.90
8888;DHT22;4480;52.370;9.748;2024-02-04T06:57:22;8.30;99.90
8888;DHT22;4480;52.370;9.748;2024-02-04T06:59:48;8.30;99.90
8888;DHT22;4480;52.370;9.748;2024-02-04T07:02:15;8.30;99.90
8888;DHT22;4480;52.370;9.748;2024-02-04T07:04:43;8.30;99.90
8888;DHT22;4480;52.370;9.748;2024-02-04T07:07:10;8.30;99.90
8888;DHT22;4480;52.370;9.748;2024-02-04T07:09:37;8.30;99.90
8888;DHT22;4480;52.370;9.748;2024-02-04T07:12:04;8.30;99.90
8888;DHT22;4480;52.370;9.748;2024-02-04T07:14:31;8.30;99.90
8888;DHT22;4480;52.370;9.748;2024-02-04T07:16:58;8.30;99.90
8888;DHT22;4480;52.370;9.748;2024-02-04T07:19:25;8.20;99.90
8888;DHT22;4480;52.370;9.748;2024-02-04T07:21:53;8.30;99.90
8888;DHT22;4480;52.370;9.748;2024-02-04T07:24:19;8.30;99.90
8888;DHT22;4480;52.370;9.748;2024-02-04T07:26:46;8.20;99.90
8888;DHT22;4480;52.370;9.748;2024-02-04T07:29:13;8.20;99.90
8888;DHT22;4480;52.370;9.748;2024-02-04T07:31:40;8.20;99.90
8888;DHT22;4480;52.370;9.748;2024-02-04T07:34:07;8.20;99.90
8888;DHT22;4480;52.370;9.748;2024-02-04T07:36:33;8.20;99.90
8888;DHT22;4480;52.370;9.748;2024-02-04T07:39:02;8.30;99.90
8888;DHT22;4480;52.370;9.748;2024-02-04T07:41:30;8.30;99.90
8888;DHT22;4480;52.370;9.748;2024-02-04T07:43:57;8.30;99.90
8888;DHT22;4480;52.370;9.748;2024-02-04T07:46:23;8.40;99.90
8888;DHT22;4480;52.370;9.748;2024-02-04T07:48:50;8.50;99.90
8888;DHT22;4480;52.370;9.748;2024-02-04T07:51:17;8.50;99.90
8888;DHT22;4480;52.370;9.748;2024-02-04T07:53:44;8.60;99.90
8888;DHT22;4480;52.370;9.748;2024-02-04T07:56:12;8.60;99.90
8888;DHT22;4480;52.370;9.748;2024-02-04T07:58:39;8.70;99.90
8888;DHT22;4480;52.370;9.748;2024-02-04T08:01:05;8.70;99.90
8888;DHT22;4480;52.370;9.748;2024-02-04T08:03:32;8.80;99.90
8888;DHT22;4480;52.370;9.748;2024-02-04T08:05:59;8.80;99.90
8888;DHT22;4480;52.370;9.748;2024-02-04T08:08:26;8.80;99.90
8888;DHT22;4480;52.370;9.748;2024-02-04T08:10:52;8.80;99.90
8888;DHT22;4480;52.370;9.748;2024-02-04T08:13:20;8.90;99.90
8888;DHT22;4480;52.370;9.748;2024-02-04T08:15:47;8.90;99.90
8888;DHT22;4480;52.370;9.748;2024-02-04T08:18:14;8.90;99.90
8888;DHT22;4480;52.370;9.748;2024-02-04T08:20:41;9.00;99.90
8888;DHT22;4480;52.370;9.748;2024-02-04T08:23:07;9.00;99.90
8888;DHT22;4480;52.370;9.748;2024-02-04T08:25:34;9.00;99.90
8888;DHT22;4480;52.370;9.748;2024-02-04T08:28:02;9.00;99.90
8888;DHT22;4480;52.370;9.748;2024-02-04T08:30:30;9.00;99.90
8888;DHT22;4480;52.370;9.748;2024-02-04T08:32:57;9.10;99.90
8888;DHT22;4480;52.370;9.748;2024-02-04T08:35:24;9.10;99.90
8888;DHT22;4480;52.370;9.748;2024-02-04T08:37:50;9.10;99.90
8888;DHT22;4480;52.370;9.748;2024-02-04T08:40:17;9.10;99.90
8888;DHT22;4480;52.370;9.748;2024-02-04T08:42:44;9.10;99.90
8888;DHT22;4480;52.370;9.748;2024-02-04T08:45:11;9.20;99.90
8888;DHT22;4480;52.370;9.748;2024-02-04T08:47:39;9.20;99.90
8888;DHT22;4480;52.370;9.748;2024-02-04T08:50:07;9.20;99.90
8888;DHT22;4480;52.370;9.748;2024-02-04T08:52:33;9.20;99.90
8888;DHT22;4480;52.370;9.748;2024-02-04T08:55:00;9.20;99.90
8888;DHT22;4480;52.370;9.748;2024-02-04T08:57:29;9.20;99.90
8888;DHT22;4480;52.370;9.748;2024-02-04T08:59:56;9.20;99.90
8888;DHT22;4480;52.370;9.748;2024-02-04T09:02:22;9.20;99.90
8888;DHT22;4480;52.370;9.748;2024-02-04T09:04:50;9.20;99.90
8888;DHT22;4480;52.370;9.748;2024-02-04T09:07:16;9.20;99.90
8888;DHT22;4480;52.370;9.748;2024-02-04T09:09:43;9.20;99.90
8888;DHT22;4480;52.370;9.748;2024-02-04T09:12:10;9.20;99.90
8888;DHT22;4480;52.370;9.748;2024-02-04T09:14:37;9.20;99.90
8888;DHT22;4480;52.370;9.748;2024-02-04T09:17:04;9.20;99.90
8888;DHT22;4480;52.370;9.748;2024-02-04T09:19:31;9.20;99.90
8888;DHT22;4480;52.370;9.748;2024-02-04T09:21:59;9.10;99.90
8888;DHT22;4480;52.370;9.748;2024-02-04T09:24:28;9.10;99.90
8888;DHT22;4480;52.370;9.748;2024-02-04T09:26:54;9.10;99.90
8888;DHT22;4480;52.370;9.748;2024-02-04T09:29:21;9.10;99.90
8888;DHT22;4480;52.370;9.748;2024-02-04T09:31:48;9.10;99.90
8888;DHT22;4480;52.370;9.748;2024-02-04T09:34:15;9.10;99.90
8888;DHT22;4480;52.370;9.748;2024-02-04T09:36:43;9.20;99.90
8888;DHT22;4480;52.370;9.748;2024-02-04T09:39:11;9.20;99.90
8888;DHT22;4480;52.370;9.748;2024-02-04T09:41:38;9.20;99.90
8888;DHT22;4480;52.370;9.748;2024-02-04T09:44:05;9.20;99.90
8888;DHT22;4480;52.370;9.748;2024-02-04T09:46:33;9.20;99.90
8888;DHT22;4480;52.370;9.748;2024-02-04T09:48:59;9.20;99.90
8888;DHT22;4480;52.370;9.748;2024-02-04T09:51:28;9.20;99.90
8888;DHT22;4480;52.370;9.748;2024-02-04T09:53:58;9.20;99.90
8888;DHT22;4480;52.370;9.748;2024-02-04T09:56:30;9.20;99.90
8888;DHT22;4480;52.370;9.748;2024-02-04T09:58:58;9.20;99.90
8888;DHT22;4480;52.370;9.748;2024-02-04T10:01:25;9.20;99.90
8888;DHT22;4480;52.370;9.748;2024-02-04T10:03:52;9.20;99.90
8888;DHT22;4480;52.370;9.748;2024-02-04T10:06:19;9.20;99.90
8888;DHT22;4480;52.370;9.748;2024-02-04T10:08:46;9.10;99.90
8888;DHT22;4480;52.370;9.748;2024-02-04T10:11:13;9.20;99.90
8888;DHT22;4480;52.370;9.748;2024-02-04T10:13:46;9.20;99.90
8888;DHT22;4480;52.370;9.748;2024-02-04T10:16:13;9.20;99.90
8888;DHT22;4480;52.370;9.748;2024-02-04T10:18:44;9.20;99.90
8888;DHT22;4480;52.370;9.748;2024-02-04T10:21:18;9.20;99.90
8888;DHT22;4480;52.370;9.748;2024-02-04T10:23:45;9.20;99.90
8888;DHT22;4480;52.370;9.748;2024-02-04T10:26:12;9.20;99.90
8888;DHT22;4480;52.370;9.748;2024-02-04T10:28:39;9.10;99.90
8888;DHT22;4480;52.370;9.748;2024-02-04T10:31:08;9.10;99.90
8888;DHT22;4480;52.370;9.748;2024-02-04T10:33:35;9.10;99.90
8888;DHT22;4480;52.370;9.748;2024-02-04T10:36:02;9.10;99.90
8888;DHT22;4480;52.370;9.748;2024-02-04T10:38:29;9.20;99.90
8888;DHT22;4480;52.370;9.748;2024-02-04T10:40:55;9.30;99.90
8888;DHT22;4480;52.370;9.748;2024-02-04T10:43:27;9.30;99.90
8888;DHT22;4480;52.370;9.748;2024-02-04T10:45:56;9.40;99.90
8888;DHT22;4480;52.370;9.748;2024-02-04T10:48:25;9.40;99.90
8888;DHT22;4480;52.370;9.748;2024-02-04T10:50:55;9.40;99.90
8888;DHT22;4480;52.370;9.748;2024-02-04T10:53:22;9.50;99.90
8888;DHT22;4480;52.370;9.748;2024-02-04T10:55:52;9.50;99.90
8888;DHT22;4480;52.370;9.748;2024-02-04T10:58:21;9.50;99.90
8888;DHT22;4480;52.370;9.748;2024-02-04T11:00:49;9.50;99.90
8888;DHT22;4480;52.370;9.748;2024-02-04T11:03:17;9.50;99.90
8888;DHT22;4480;52.370;9.748;2024-02-04T11:05:47;9.50;99.90
8888;DHT22;4480;52.370;9.748;2024-02-04T11:08:15;9.50;99.90
8888;DHT22;4480;52.370;9.748;2024-02-04T11:10:42;9.60;99.90
8888;DHT22;4480;52.370;9.748;2024-02-04T11:13:10;9.70;99.90
8888;DHT22;4480;52.370;9.748;2024-02-04T11:15:38;9.70;99.90
8888;DHT22;4480;52.370;9.748;2024-02-04T11:18:30;9.80;99.90
8888;DHT22;4480;52.370;9.748;2024-02-04T11:24:13;9.90;99.90
8888;DHT22;4480;52.370;9.748;2024-02-04T11:26:45;10.00;99.90
8888;DHT22;4480;52.370;9.748;2024-02-04T11:29:12;10.00;99.90
8888;DHT22;4480;52.370;9.748;2024-02-04T11:31:39;10.00;99.90
8888;DHT22;4480;52.370;9.748;2024-02-04T11:34:07;10.00;99.90
8888;DHT22;4480;52.370;9.748;2024-02-04T11:36:39;10.00;99.90
8888;DHT22;4480;52.370;9.748;2024-02-04T11:39:12;10.00;98.80
8888;DHT22;4480;52.370;9.748;2024-02-04T11:41:45;10.00;98.30
8888;DHT22;4480;52.370;9.748;2024-02-04T11:44:20;10.00;97.80
8888;DHT22;4480;52.370;9.748;2024-02-04T11:46:47;10.00;97.60
8888;DHT22;4480;52.370;9.748;2024-02-04T11:49:17;10.10;97.30
8888;DHT22;4480;52.370;9.748;2024-02-04T11:51:46;10.10;96.50
8888;DHT22;4480;52.370;9.748;2024-02-04T11:54:15;10.20;96.30
8888;DHT22;4480;52.370;9.748;2024-02-04T11:56:44;10.20;95.60
8888;DHT22;4480;52.370;9.748;2024-02-04T11:59:12;10.20;95.00
8888;DHT22;4480;52.370;9.748;2024-02-04T12:01:39;10.20;94.50
8888;DHT22;4480;52.370;9.748;2024-02-04T12:04:10;10.20;94.60
8888;DHT22;4480;52.370;9.748;2024-02-04T12:06:37;10.30;94.30
8888;DHT22;4480;52.370;9.748;2024-02-04T12:09:06;10.30;94.20
8888;DHT22;4480;52.370;9.748;2024-02-04T12:11:34;10.30;94.10
8888;DHT22;4480;52.370;9.748;2024-02-04T12:14:01;10.30;93.50
8888;DHT22;4480;52.370;9.748;2024-02-04T12:16:31;10.30;93.20
8888;DHT22;4480;52.370;9.748;2024-02-04T12:18:58;10.30;93.60
8888;DHT22;4480;52.370;9.748;2024-02-04T12:21:25;10.20;93.80
8888;DHT22;4480;52.370;9.748;2024-02-04T12:23:52;10.20;94.00
8888;DHT22;4480;52.370;9.748;2024-02-04T12:26:20;10.20;94.20
8888;DHT22;4480;52.370;9.748;2024-02-04T12:28:47;10.20;94.30
8888;DHT22;4480;52.370;9.748;2024-02-04T12:31:18;10.10;94.40
8888;DHT22;4480;52.370;9.748;2024-02-04T12:33:52;10.10;94.30
8888;DHT22;4480;52.370;9.748;2024-02-04T12:36:20;10.10;94.30
8888;DHT22;4480;52.370;9.748;2024-02-04T12:38:52;10.00;94.20
8888;DHT22;4480;52.370;9.748;2024-02-04T12:41:20;10.00;94.50
8888;DHT22;4480;52.370;9.748;2024-02-04T12:43:50;10.00;94.80
8888;DHT22;4480;52.370;9.748;2024-02-04T12:46:17;10.00;94.80
8888;DHT22;4480;52.370;9.748;2024-02-04T12:48:44;9.90;95.50
8888;DHT22;4480;52.370;9.748;2024-02-04T12:51:11;9.90;95.30
8888;DHT22;4480;52.370;9.748;2024-02-04T12:53:38;9.90;95.50
8888;DHT22;4480;52.370;9.748;2024-02-04T12:56:05;9.80;95.70
8888;DHT22;4480;52.370;9.748;2024-02-04T12:58:42;9.80;96.00
8888;DHT22;4480;52.370;9.748;2024-02-04T13:01:08;9.80;96.50
8888;DHT22;4480;52.370;9.748;2024-02-04T13:03:35;9.80;96.80
8888;DHT22;4480;52.370;9.748;2024-02-04T13:06:02;9.80;97.20
8888;DHT22;4480;52.370;9.748;2024-02-04T13:08:29;9.80;97.60
8888;DHT22;4480;52.370;9.748;2024-02-04T13:10:57;9.70;97.90
8888;DHT22;4480;52.370;9.748;2024-02-04T13:13:24;9.70;98.30
8888;DHT22;4480;52.370;9.748;2024-02-04T13:15:54;9.70;98.70
8888;DHT22;4480;52.370;9.748;2024-02-04T13:18:21;9.70;99.10
8888;DHT22;4480;52.370;9.748;2024-02-04T13:20:48;9.70;99.40
8888;DHT22;4480;52.370;9.748;2024-02-04T13:23:15;9.70;99.80
8888;DHT22;4480;52.370;9.748;2024-02-04T13:25:42;9.70;99.90
8888;DHT22;4480;52.370;9.748;2024-02-04T13:28:09;9.70;99.90
8888;DHT22;4480;52.370;9.748;2024-02-04T13:30:36;9.70;99.90
8888;DHT22;4480;52.370;9.748;2024-02-04T13:33:05;9.60;99.90
8888;DHT22;4480;52.370;9.748;2024-02-04T13:35:31;9.60;99.90
8888;DHT22;4480;52.370;9.748;2024-02-04T13:37:58;9.60;99.90
8888;DHT22;4480;52.370;9.748;2024-02-04T13:40:25;9.60;99.90
8888;DHT22;4480;52.370;9.748;2024-02-04T13:42:52;9.60;99.90
8888;DHT22;4480;52.370;9.748;2024-02-04T13:45:19;9.60;99.90
8888;DHT22;4480;52.370;9.748;2024-02-04T13:47:46;9.60;99.90
8888;DHT22;4480;52.370;9.748;2024-02-04T13:50:14;9.60;99.90
8888;DHT22;4480;52.370;9.748;2024-02-04T13:52:41;9.60;99.90
8888;DHT22;4480;52.370;9.748;2024-02-04T13:55:08;9.60;99.90
8888;DHT22;4480;52.370;9.748;2024-02-04T13:57:35;9.60;99.90
8888;DHT22;4480;52.370;9.748;2024-02-04T14:00:03;9.60;99.90
8888;DHT22;4480;52.370;9.748;2024-02-04T14:02:31;9.60;99.90
8888;DHT22;4480;52.370;9.748;2024-02-04T14:04:58;9.60;99.90
8888;DHT22;4480;52.370;9.748;2024-02-04T14:07:26;9.60;99.90
8888;DHT22;4480;52.370;9.748;2024-02-04T14:09:53;9.60;99.90
8888;DHT22;4480;52.370;9.748;2024-02-04T14:12:20;9.60;99.90
8888;DHT22;4480;52.370;9.748;2024-02-04T14:14:47;9.50;99.90
8888;DHT22;4480;52.370;9.748;2024-02-04T14:17:13;9.50;99.90
8888;DHT22;4480;52.370;9.748;2024-02-04T14:19:40;9.50;99.90
8888;DHT22;4480;52.370;9.748;2024-02-04T14:22:07;9.50;99.90
8888;DHT22;4480;52.370;9.748;2024-02-04T14:24:35;9.50;99.90
8888;DHT22;4480;52.370;9.748;2024-02-04T14:27:01;9.40;99.90
8888;DHT22;4480;52.370;9.748;2024-02-04T14:29:28;9.40;99.90
8888;DHT22;4480;52.370;9.748;2024-02-04T14:31:55;9.40;99.90
8888;DHT22;4480;52.370;9.748;2024-02-04T14:34:23;9.40;99.90
8888;DHT22;4480;52.370;9.748;2024-02-04T14:36:50;9.40;99.90
8888;DHT22;4480;52.370;9.748;2024-02-04T14:39:17;9.40;99.90
8888;DHT22;4480;52.370;9.748;2024-02-04T14:41:45;9.40;99.90
8888;DHT22;4480;52.370;9.748;2024-02-04T14:44:12;9.40;99.90
8888;DHT22;4480;52.370;9.748;2024-02-04T14:46:39;9.40;99.90
8888;DHT22;4480;52.370;9.748;2024-02-04T14:49:06;9.40;99.90
8888;DHT22;4480;52.370;9.748;2024-02-04T14:51:33;9.40;99.90
8888;DHT22;4480;52.370;9.748;2024-02-04T14:54:01;9.40;99.90
8888;DHT22;4480;52.370;9.748;2024-02-04T14:56:28;9.30;99.90
8888;DHT22;4480;52.370;9.748;2024-02-04T14:58:56;9.30;99.90
8888;DHT22;4480;52.370;9.748;2024-02-04T15:01:23;9.40;99.90
8888;DHT22;4480;52.370;9.748;2024-02-04T15:03:49;9.30;99.90
8888;DHT22;4480;52.370;9.748;2024-02-04T15:06:16;9.30;99.90
8888;DHT22;4480;52.370;9.748;2024-02-04T15:08:43;9.30;99.90
8888;DHT22;4480;52.370;9.748;2024-02-04T15:11:10;9.30;99.90
8888;DHT22;4480;52.370;9.748;2024-02-04T15:13:37;9.20;99.90
8888;DHT22;4480;52.370;9.748;2024-02-04T15:16:06;9.20;99.90
8888;DHT22;4480;52.370;9.748;2024-02-04T15:18:34;9.20;99.90
8888;DHT22;4480;52.370;9.748;2024-02-04T15:21:02;9.20;99.90
8888;DHT22;4480;52.370;9.748;2024-02-04T15:23:29;9.10;99.90
8888;DHT22;4480;52.370;9.748;2024-02-04T15:25:56;9.10;99.90
8888;DHT22;4480;52.370;9.748;2024-02-04T15:28:23;9.10;99.90
8888;DHT22;4480;52.370;9.748;2024-02-04T15:30:51;9.10;99.90
8888;DHT22;4480;52.370;9.748;2024-02-04T15:33:20;9.10;99.90
8888;DHT22;4480;52.370;9.748;2024-02-04T15:35:47;9.10;99.90
8888;DHT22;4480;52.370;9.748;2024-02-04T15:38:13;9.10;99.90
8888;DHT22;4480;52.370;9.748;2024-02-04T15:40:40;9.10;99.90
8888;DHT22;4480;52.370;9.748;2024-02-04T15:43:07;9.10;99.90
8888;DHT22;4480;52.370;9.748;2024-02-04T15:45:34;9.00;99.90
8888;DHT22;4480;52.370;9.748;2024-02-04T15:48:03;8.90;99.90
8888;DHT22;4480;52.370;9.748;2024-02-04T15:50:32;8.80;99.90
8888;DHT22;4480;52.370;9.748;2024-02-04T15:52:59;8.70;99.90
8888;DHT22;4480;52.370;9.748;2024-02-04T15:55:26;8.60;99.90
8888;DHT22;4480;52.370;9.748;2024-02-04T15:57:53;8.50;99.90
8888;DHT22;4480;52.370;9.748;2024-02-04T16:00:21;8.50;99.90
8888;DHT22;4480;52.370;9.748;2024-02-04T16:02:51;8.40;99.90
8888;DHT22;4480;52.370;9.748;2024-02-04T16:05:19;8.40;99.90
8888;DHT22;4480;52.370;9.748;2024-02-04T16:07:49;8.40;99.90
8888;DHT22;4480;52.370;9.748;2024-02-04T16:10:17;8.30;99.90
8888;DHT22;4480;52.370;9.748;2024-02-04T16:12:53;8.30;99.90
8888;DHT22;4480;52.370;9.748;2024-02-04T16:15:22;8.20;99.90
8888;DHT22;4480;52.370;9.748;2024-02-04T16:17:50;8.20;99.90
8888;DHT22;4480;52.370;9.748;2024-02-04T16:20:17;8.20;99.90
8888;DHT22;4480;52.370;9.748;2024-02-04T16:22:45;8.20;99.90
8888;DHT22;4480;52.370;9.748;2024-02-04T16:25:13;8.20;99.90